sensor_id;sensor_type;location;lat;lon;timestamp;temperature;humidity
10149;DHT22;5115;50.920;6.376;2024-02-26T00:01:41;8.10;99.90
10149;DHT22;5115;50.920;6.376;2024-02-26T00:04:06;8.10;99.90
10149;DHT22;5115;50.920;6.376;2024-02-26T00:06:32;8.10;99.90
10149;DHT22;5115;50.920;6.376;2024-02-26T00:08:58;7.90;99.90
10149;DHT22;5115;50.920;6.376;2024-02-26T00:11:23;7.90;99.90
10149;DHT22;5115;50.920;6.376;2024-02-26T00:13:49;7.80;99.90
10149;DHT22;5115;50.920;6.376;2024-02-26T00:16:15;7.80;99.90
10149;DHT22;5115;50.920;6.376;2024-02-26T00:18:40;7.70;99.90
10149;DHT22;5115;50.920;6.376;2024-02-26T00:21:06;7.70;99.90
10149;DHT22;5115;50.920;6.376;2024-02-26T00:23:31;7.70;99.90
10149;DHT22;5115;50.920;6.376;2024-02-26T00:25:57;7.70;99.90
10149;DHT22;5115;50.920;6.376;2024-02-26T00:28:23;7.70;99.90
10149;DHT22;5115;50.920;6.376;2024-02-26T00:30:50;7.70;99.90
10149;DHT22;5115;50.920;6.376;2024-02-26T00:33:17;7.80;99.90
10149;DHT22;5115;50.920;6.376;2024-02-26T00:35:42;7.80;99.90
10149;DHT22;5115;50.920;6.376;2024-02-26T00:38:08;7.80;99.90
10149;DHT22;5115;50.920;6.376;2024-02-26T00:40:33;7.80;99.90
10149;DHT22;5115;50.920;6.376;2024-02-26T00:42:59;7.80;99.90
10149;DHT22;5115;50.920;6.376;2024-02-26T00:45:25;9.20;99.90
10149;DHT22;5115;50.920;6.376;2024-02-26T00:47:50;7.90;99.90
10149;DHT22;5115;50.920;6.376;2024-02-26T00:50:16;7.80;99.90
10149;DHT22;5115;50.920;6.376;2024-02-26T00:52:42;7.80;99.90
10149;DHT22;5115;50.920;6.376;2024-02-26T00:55:07;7.90;99.90
10149;DHT22;5115;50.920;6.376;2024-02-26T00:57:33;7.90;99.90
10149;DHT22;5115;50.920;6.376;2024-02-26T00:59:58;7.80;99.90
10149;DHT22;5115;50.920;6.376;2024-02-26T01:02:24;7.80;99.90
10149;DHT22;5115;50.920;6.376;2024-02-26T01:04:50;7.80;99.90
10149;DHT22;5115;50.920;6.376;2024-02-26T01:07:16;7.90;99.90
10149;DHT22;5115;50.920;6.376;2024-02-26T01:09:42;7.80;99.90
10149;DHT22;5115;50.920;6.376;2024-02-26T01:12:07;7.60;99.90
10149;DHT22;5115;50.920;6.376;2024-02-26T01:14:33;7.60;99.90
10149;DHT22;5115;50.920;6.376;2024-02-26T01:16:59;7.70;99.90
10149;DHT22;5115;50.920;6.376;2024-02-26T01:19:24;7.60;99.90
10149;DHT22;5115;50.920;6.376;2024-02-26T01:21:50;7.60;99.90
10149;DHT22;5115;50.920;6.376;2024-02-26T01:24:15;7.70;99.90
10149;DHT22;5115;50.920;6.376;2024-02-26T01:26:42;7.70;99.90
10149;DHT22;5115;50.920;6.376;2024-02-26T01:29:07;7.70;99.90
10149;DHT22;5115;50.920;6.376;2024-02-26T01:31:32;7.70;99.90
10149;DHT22;5115;50.920;6.376;2024-02-26T01:33:58;7.60;99.90
10149;DHT22;5115;50.920;6.376;2024-02-26T01:36:24;7.60;99.90
10149;DHT22;5115;50.920;6.376;2024-02-26T01:38:49;7.60;99.90
10149;DHT22;5115;50.920;6.376;2024-02-26T01:41:15;7.50;99.90
10149;DHT22;5115;50.920;6.376;2024-02-26T01:43:40;7.40;99.90
10149;DHT22;5115;50.920;6.376;2024-02-26T01:46:07;7.20;99.90
10149;DHT22;5115;50.920;6.376;2024-02-26T01:48:36;7.30;99.90
10149;DHT22;5115;50.920;6.376;2024-02-26T01:51:02;7.40;99.90
10149;DHT22;5115;50.920;6.376;2024-02-26T01:53:28;7.50;99.90
10149;DHT22;5115;50.920;6.376;2024-02-26T01:55:53;7.50;99.90
10149;DHT22;5115;50.920;6.376;2024-02-26T01:58:19;7.50;99.90
10149;DHT22;5115;50.920;6.376;2024-02-26T02:00:45;7.50;99.90
10149;DHT22;5115;50.920;6.376;2024-02-26T02:03:11;7.50;99.90
10149;DHT22;5115;50.920;6.376;2024-02-26T02:05:37;7.50;99.90
10149;DHT22;5115;50.920;6.376;2024-02-26T02:08:07;7.50;99.90
10149;DHT22;5115;50.920;6.376;2024-02-26T02:10:34;7.50;99.90
10149;DHT22;5115;50.920;6.376;2024-02-26T02:12:59;7.50;99.90
10149;DHT22;5115;50.920;6.376;2024-02-26T02:15:25;7.50;99.90
10149;DHT22;5115;50.920;6.376;2024-02-26T02:17:50;7.50;99.90
10149;DHT22;5115;50.920;6.376;2024-02-26T02:20:17;7.50;99.90
10149;DHT22;5115;50.920;6.376;2024-02-26T02:22:46;7.50;99.90
10149;DHT22;5115;50.920;6.376;2024-02-26T02:25:12;7.50;99.90
10149;DHT22;5115;50.920;6.376;2024-02-26T02:27:38;7.50;99.90
10149;DHT22;5115;50.920;6.376;2024-02-26T02:30:05;7.90;99.90
10149;DHT22;5115;50.920;6.376;2024-02-26T02:32:31;7.40;99.90
10149;DHT22;5115;50.920;6.376;2024-02-26T02:34:58;7.50;99.90
10149;DHT22;5115;50.920;6.376;2024-02-26T02:37:24;7.50;99.90
10149;DHT22;5115;50.920;6.376;2024-02-26T02:39:49;7.50;99.90
10149;DHT22;5115;50.920;6.376;2024-02-26T02:42:15;7.50;99.90
10149;DHT22;5115;50.920;6.376;2024-02-26T02:44:40;7.50;99.90
10149;DHT22;5115;50.920;6.376;2024-02-26T02:47:06;7.50;99.90
10149;DHT22;5115;50.920;6.376;2024-02-26T02:49:31;7.60;99.90
10149;DHT22;5115;50.920;6.376;2024-02-26T02:51:57;7.60;99.90
10149;DHT22;5115;50.920;6.376;2024-02-26T02:54:23;7.50;99.90
10149;DHT22;5115;50.920;6.376;2024-02-26T02:56:48;7.60;99.90
10149;DHT22;5115;50.920;6.376;2024-02-26T02:59:14;7.60;99.90
10149;DHT22;5115;50.920;6.376;2024-02-26T03:01:39;7.60;99.90
10149;DHT22;5115;50.920;6.376;2024-02-26T03:04:05;7.70;99.90
10149;DHT22;5115;50.920;6.376;2024-02-26T03:06:30;7.70;99.90
10149;DHT22;5115;50.920;6.376;2024-02-26T03:08:56;7.60;99.90
10149;DHT22;5115;50.920;6.376;2024-02-26T03:11:21;7.60;99.90
10149;DHT22;5115;50.920;6.376;2024-02-26T03:13:47;7.70;99.90
10149;DHT22;5115;50.920;6.376;2024-02-26T03:16:12;7.60;99.90
10149;DHT22;5115;50.920;6.376;2024-02-26T03:18:41;7.40;99.90
10149;DHT22;5115;50.920;6.376;2024-02-26T03:21:07;7.30;99.90
10149;DHT22;5115;50.920;6.376;2024-02-26T03:23:32;7.50;99.90
10149;DHT22;5115;50.920;6.376;2024-02-26T03:26:03;7.50;99.90
10149;DHT22;5115;50.920;6.376;2024-02-26T03:28:29;7.50;99.90
10149;DHT22;5115;50.920;6.376;2024-02-26T03:30:55;7.60;99.90
10149;DHT22;5115;50.920;6.376;2024-02-26T03:33:20;7.50;99.90
10149;DHT22;5115;50.920;6.376;2024-02-26T03:35:46;7.50;99.90
10149;DHT22;5115;50.920;6.376;2024-02-26T03:38:11;7.50;99.90
10149;DHT22;5115;50.920;6.376;2024-02-26T03:40:37;7.70;99.90
10149;DHT22;5115;50.920;6.376;2024-02-26T03:43:02;7.50;99.90
10149;DHT22;5115;50.920;6.376;2024-02-26T03:45:30;7.50;99.90
10149;DHT22;5115;50.920;6.376;2024-02-26T03:47:55;7.50;99.90
10149;DHT22;5115;50.920;6.376;2024-02-26T03:50:21;7.50;99.90
10149;DHT22;5115;50.920;6.376;2024-02-26T03:52:46;7.50;99.90
10149;DHT22;5115;50.920;6.376;2024-02-26T03:55:12;7.40;99.90
10149;DHT22;5115;50.920;6.376;2024-02-26T03:57:37;7.30;99.90
10149;DHT22;5115;50.920;6.376;2024-02-26T04:00:03;7.40;99.90
10149;DHT22;5115;50.920;6.376;2024-02-26T04:02:29;7.40;99.90
10149;DHT22;5115;50.920;6.376;2024-02-26T04:04:54;7.30;99.90
10149;DHT22;5115;50.920;6.376;2024-02-26T04:07:20;8.30;99.90
10149;DHT22;5115;50.920;6.376;2024-02-26T04:09:45;8.90;99.90
10149;DHT22;5115;50.920;6.376;2024-02-26T04:12:11;7.50;99.90
10149;DHT22;5115;50.920;6.376;2024-02-26T04:14:37;7.40;99.90
10149;DHT22;5115;50.920;6.376;2024-02-26T04:17:03;7.40;99.90
10149;DHT22;5115;50.920;6.376;2024-02-26T04:19:28;7.30;99.90
10149;DHT22;5115;50.920;6.376;2024-02-26T04:21:54;7.20;99.90
10149;DHT22;5115;50.920;6.376;2024-02-26T04:24:20;7.00;99.90
10149;DHT22;5115;50.920;6.376;2024-02-26T04:26:45;8.00;99.90
10149;DHT22;5115;50.920;6.376;2024-02-26T04:29:11;7.10;99.90
10149;DHT22;5115;50.920;6.376;2024-02-26T04:31:37;7.30;99.90
10149;DHT22;5115;50.920;6.376;2024-02-26T04:34:03;7.20;99.90
10149;DHT22;5115;50.920;6.376;2024-02-26T04:36:29;7.10;99.90
10149;DHT22;5115;50.920;6.376;2024-02-26T04:38:54;7.10;99.90
10149;DHT22;5115;50.920;6.376;2024-02-26T04:41:21;7.10;99.90
10149;DHT22;5115;50.920;6.376;2024-02-26T04:43:46;7.10;99.90
10149;DHT22;5115;50.920;6.376;2024-02-26T04:46:12;6.70;99.90
10149;DHT22;5115;50.920;6.376;2024-02-26T04:48:38;8.40;99.90
10149;DHT22;5115;50.920;6.376;2024-02-26T04:51:07;7.20;99.90
10149;DHT22;5115;50.920;6.376;2024-02-26T04:53:32;7.30;99.90
10149;DHT22;5115;50.920;6.376;2024-02-26T04:55:58;7.30;99.90
10149;DHT22;5115;50.920;6.376;2024-02-26T04:58:24;7.20;99.90
10149;DHT22;5115;50.920;6.376;2024-02-26T05:00:49;7.20;99.90
10149;DHT22;5115;50.920;6.376;2024-02-26T05:03:15;7.10;99.90
10149;DHT22;5115;50.920;6.376;2024-02-26T05:05:44;7.20;99.90
10149;DHT22;5115;50.920;6.376;2024-02-26T05:08:10;8.00;99.90
10149;DHT22;5115;50.920;6.376;2024-02-26T05:10:36;7.10;99.90
10149;DHT22;5115;50.920;6.376;2024-02-26T05:13:07;8.00;99.90
10149;DHT22;5115;50.920;6.376;2024-02-26T05:15:33;7.00;99.90
10149;DHT22;5115;50.920;6.376;2024-02-26T05:17:59;7.00;99.90
10149;DHT22;5115;50.920;6.376;2024-02-26T05:20:24;7.00;99.90
10149;DHT22;5115;50.920;6.376;2024-02-26T05:22:50;7.10;99.90
10149;DHT22;5115;50.920;6.376;2024-02-26T05:25:16;7.20;99.90
10149;DHT22;5115;50.920;6.376;2024-02-26T05:27:42;7.10;99.90
10149;DHT22;5115;50.920;6.376;2024-02-26T05:30:09;7.90;99.90
10149;DHT22;5115;50.920;6.376;2024-02-26T05:32:34;7.00;99.90
10149;DHT22;5115;50.920;6.376;2024-02-26T05:35:00;7.00;99.90
10149;DHT22;5115;50.920;6.376;2024-02-26T05:37:25;6.90;99.90
10149;DHT22;5115;50.920;6.376;2024-02-26T05:39:52;7.00;99.90
10149;DHT22;5115;50.920;6.376;2024-02-26T05:42:18;6.90;99.90
10149;DHT22;5115;50.920;6.376;2024-02-26T05:44:43;7.00;99.90
10149;DHT22;5115;50.920;6.376;2024-02-26T05:47:09;7.00;99.90
10149;DHT22;5115;50.920;6.376;2024-02-26T05:49:35;7.10;99.90
10149;DHT22;5115;50.920;6.376;2024-02-26T05:52:00;7.10;99.90
10149;DHT22;5115;50.920;6.376;2024-02-26T05:54:26;7.10;99.90
10149;DHT22;5115;50.920;6.376;2024-02-26T05:56:51;7.20;99.90
10149;DHT22;5115;50.920;6.376;2024-02-26T05:59:17;7.10;99.90
10149;DHT22;5115;50.920;6.376;2024-02-26T06:01:42;7.10;99.90
10149;DHT22;5115;50.920;6.376;2024-02-26T06:04:08;7.10;99.90
10149;DHT22;5115;50.920;6.376;2024-02-26T06:06:33;7.10;99.90
10149;DHT22;5115;50.920;6.376;2024-02-26T06:08:59;7.20;99.90
10149;DHT22;5115;50.920;6.376;2024-02-26T06:11:24;7.10;99.90
10149;DHT22;5115;50.920;6.376;2024-02-26T06:13:50;8.20;99.90
10149;DHT22;5115;50.920;6.376;2024-02-26T06:16:15;7.10;99.90
10149;DHT22;5115;50.920;6.376;2024-02-26T06:18:41;7.10;99.90
10149;DHT22;5115;50.920;6.376;2024-02-26T06:21:09;7.90;99.90
10149;DHT22;5115;50.920;6.376;2024-02-26T06:23:36;7.10;99.90
10149;DHT22;5115;50.920;6.376;2024-02-26T06:26:01;7.00;99.90
10149;DHT22;5115;50.920;6.376;2024-02-26T06:28:27;7.00;99.90
10149;DHT22;5115;50.920;6.376;2024-02-26T06:30:55;6.90;99.90
10149;DHT22;5115;50.920;6.376;2024-02-26T06:33:21;6.80;99.90
10149;DHT22;5115;50.920;6.376;2024-02-26T06:35:46;6.90;99.90
10149;DHT22;5115;50.920;6.376;2024-02-26T06:38:12;6.90;99.90
10149;DHT22;5115;50.920;6.376;2024-02-26T06:40:39;6.80;99.90
10149;DHT22;5115;50.920;6.376;2024-02-26T06:43:04;6.80;99.90
10149;DHT22;5115;50.920;6.376;2024-02-26T06:45:30;6.80;99.90
10149;DHT22;5115;50.920;6.376;2024-02-26T06:47:56;6.90;99.90
10149;DHT22;5115;50.920;6.376;2024-02-26T06:50:22;6.90;99.90
10149;DHT22;5115;50.920;6.376;2024-02-26T06:52:47;6.80;99.90
10149;DHT22;5115;50.920;6.376;2024-02-26T06:55:13;6.90;99.90
10149;DHT22;5115;50.920;6.376;2024-02-26T06:57:39;6.90;99.90
10149;DHT22;5115;50.920;6.376;2024-02-26T07:00:05;6.90;99.90
10149;DHT22;5115;50.920;6.376;2024-02-26T07:02:31;6.80;99.90
10149;DHT22;5115;50.920;6.376;2024-02-26T07:04:56;6.90;99.90
10149;DHT22;5115;50.920;6.376;2024-02-26T07:07:24;6.90;99.90
10149;DHT22;5115;50.920;6.376;2024-02-26T07:09:49;7.00;99.90
10149;DHT22;5115;50.920;6.376;2024-02-26T07:12:15;7.20;99.90
10149;DHT22;5115;50.920;6.376;2024-02-26T07:14:46;7.20;99.90
10149;DHT22;5115;50.920;6.376;2024-02-26T07:17:12;7.20;99.90
10149;DHT22;5115;50.920;6.376;2024-02-26T07:19:37;7.10;99.90
10149;DHT22;5115;50.920;6.376;2024-02-26T07:22:03;7.00;99.90
10149;DHT22;5115;50.920;6.376;2024-02-26T07:24:28;7.00;99.90
10149;DHT22;5115;50.920;6.376;2024-02-26T07:26:54;7.00;99.90
10149;DHT22;5115;50.920;6.376;2024-02-26T07:29:21;7.00;99.90
10149;DHT22;5115;50.920;6.376;2024-02-26T07:31:46;7.00;99.90
10149;DHT22;5115;50.920;6.376;2024-02-26T07:34:12;6.90;99.90
10149;DHT22;5115;50.920;6.376;2024-02-26T07:36:38;6.90;99.90
10149;DHT22;5115;50.920;6.376;2024-02-26T07:39:04;6.90;99.90
10149;DHT22;5115;50.920;6.376;2024-02-26T07:41:30;7.10;99.90
10149;DHT22;5115;50.920;6.376;2024-02-26T07:43:55;7.10;99.90
10149;DHT22;5115;50.920;6.376;2024-02-26T07:46:21;7.00;99.90
10149;DHT22;5115;50.920;6.376;2024-02-26T07:48:46;7.10;99.90
10149;DHT22;5115;50.920;6.376;2024-02-26T07:51:13;7.20;99.90
10149;DHT22;5115;50.920;6.376;2024-02-26T07:53:39;7.10;99.90
10149;DHT22;5115;50.920;6.376;2024-02-26T07:56:05;7.00;99.90
10149;DHT22;5115;50.920;6.376;2024-02-26T07:58:32;7.00;99.90
10149;DHT22;5115;50.920;6.376;2024-02-26T08:00:58;7.00;99.90
10149;DHT22;5115;50.920;6.376;2024-02-26T08:03:24;6.90;99.90
10149;DHT22;5115;50.920;6.376;2024-02-26T08:05:51;7.00;99.90
10149;DHT22;5115;50.920;6.376;2024-02-26T08:08:17;7.00;99.90
10149;DHT22;5115;50.920;6.376;2024-02-26T08:10:42;9.00;99.90
10149;DHT22;5115;50.920;6.376;2024-02-26T08:13:08;7.10;99.90
10149;DHT22;5115;50.920;6.376;2024-02-26T08:15:34;7.10;99.90
10149;DHT22;5115;50.920;6.376;2024-02-26T08:18:00;7.10;99.90
10149;DHT22;5115;50.920;6.376;2024-02-26T08:20:28;7.60;99.90
10149;DHT22;5115;50.920;6.376;2024-02-26T08:22:54;7.00;99.90
10149;DHT22;5115;50.920;6.376;2024-02-26T08:25:20;7.10;99.90
10149;DHT22;5115;50.920;6.376;2024-02-26T08:27:45;7.10;99.90
10149;DHT22;5115;50.920;6.376;2024-02-26T08:30:13;8.30;99.90
10149;DHT22;5115;50.920;6.376;2024-02-26T08:32:45;7.20;99.90
10149;DHT22;5115;50.920;6.376;2024-02-26T08:35:10;7.30;99.90
10149;DHT22;5115;50.920;6.376;2024-02-26T08:37:36;7.30;99.90
10149;DHT22;5115;50.920;6.376;2024-02-26T08:40:02;7.20;99.90
10149;DHT22;5115;50.920;6.376;2024-02-26T08:42:29;7.00;99.90
10149;DHT22;5115;50.920;6.376;2024-02-26T08:44:55;7.10;99.90
10149;DHT22;5115;50.920;6.376;2024-02-26T08:47:20;7.20;99.90
10149;DHT22;5115;50.920;6.376;2024-02-26T08:49:46;7.20;99.90
10149;DHT22;5115;50.920;6.376;2024-02-26T08:52:11;7.20;99.90
10149;DHT22;5115;50.920;6.376;2024-02-26T08:54:37;7.30;99.90
10149;DHT22;5115;50.920;6.376;2024-02-26T08:57:03;7.30;99.90
10149;DHT22;5115;50.920;6.376;2024-02-26T08:59:31;7.20;99.90
10149;DHT22;5115;50.920;6.376;2024-02-26T09:01:57;8.30;99.90
10149;DHT22;5115;50.920;6.376;2024-02-26T09:04:22;7.20;99.90
10149;DHT22;5115;50.920;6.376;2024-02-26T09:06:51;7.20;99.90
10149;DHT22;5115;50.920;6.376;2024-02-26T09:09:18;8.20;99.90
10149;DHT22;5115;50.920;6.376;2024-02-26T09:11:43;7.20;99.90
10149;DHT22;5115;50.920;6.376;2024-02-26T09:14:09;7.20;99.90
10149;DHT22;5115;50.920;6.376;2024-02-26T09:16:34;7.10;99.90
10149;DHT22;5115;50.920;6.376;2024-02-26T09:19:01;7.10;99.90
10149;DHT22;5115;50.920;6.376;2024-02-26T09:21:28;7.10;99.90
10149;DHT22;5115;50.920;6.376;2024-02-26T09:23:54;7.10;99.90
10149;DHT22;5115;50.920;6.376;2024-02-26T09:26:19;7.00;99.90
10149;DHT22;5115;50.920;6.376;2024-02-26T09:28:45;7.10;99.90
10149;DHT22;5115;50.920;6.376;2024-02-26T09:31:10;7.10;99.90
10149;DHT22;5115;50.920;6.376;2024-02-26T09:33:36;7.00;99.90
10149;DHT22;5115;50.920;6.376;2024-02-26T09:36:03;6.80;99.90
10149;DHT22;5115;50.920;6.376;2024-02-26T09:38:29;6.80;99.90
10149;DHT22;5115;50.920;6.376;2024-02-26T09:40:57;6.80;99.90
10149;DHT22;5115;50.920;6.376;2024-02-26T09:43:23;6.90;99.90
10149;DHT22;5115;50.920;6.376;2024-02-26T09:45:53;6.90;99.90
10149;DHT22;5115;50.920;6.376;2024-02-26T09:48:19;6.90;99.90
10149;DHT22;5115;50.920;6.376;2024-02-26T09:50:45;6.90;99.90
10149;DHT22;5115;50.920;6.376;2024-02-26T09:53:12;6.80;99.90
10149;DHT22;5115;50.920;6.376;2024-02-26T09:55:39;6.90;99.90
10149;DHT22;5115;50.920;6.376;2024-02-26T09:58:05;8.60;99.90
10149;DHT22;5115;50.920;6.376;2024-02-26T10:00:31;6.90;99.90
10149;DHT22;5115;50.920;6.376;2024-02-26T10:03:04;7.00;99.90
10149;DHT22;5115;50.920;6.376;2024-02-26T10:05:31;7.00;99.90
10149;DHT22;5115;50.920;6.376;2024-02-26T10:07:57;7.00;99.90
10149;DHT22;5115;50.920;6.376;2024-02-26T10:10:23;7.10;99.90
10149;DHT22;5115;50.920;6.376;2024-02-26T10:12:49;7.20;99.90
10149;DHT22;5115;50.920;6.376;2024-02-26T10:15:15;7.40;99.90
10149;DHT22;5115;50.920;6.376;2024-02-26T10:17:41;7.40;99.90
10149;DHT22;5115;50.920;6.376;2024-02-26T10:20:15;7.40;99.90
10149;DHT22;5115;50.920;6.376;2024-02-26T10:22:41;7.50;99.90
10149;DHT22;5115;50.920;6.376;2024-02-26T10:25:07;7.60;99.90
10149;DHT22;5115;50.920;6.376;2024-02-26T10:27:34;7.50;99.90
10149;DHT22;5115;50.920;6.376;2024-02-26T10:30:03;7.50;99.90
10149;DHT22;5115;50.920;6.376;2024-02-26T10:32:29;7.60;99.90
10149;DHT22;5115;50.920;6.376;2024-02-26T10:34:57;7.80;99.90
10149;DHT22;5115;50.920;6.376;2024-02-26T10:37:23;7.80;99.90
10149;DHT22;5115;50.920;6.376;2024-02-26T10:39:50;7.90;99.90
10149;DHT22;5115;50.920;6.376;2024-02-26T10:42:16;8.00;99.90
10149;DHT22;5115;50.920;6.376;2024-02-26T10:44:43;8.00;99.90
10149;DHT22;5115;50.920;6.376;2024-02-26T10:47:10;7.90;99.90
10149;DHT22;5115;50.920;6.376;2024-02-26T10:49:35;7.90;99.90
10149;DHT22;5115;50.920;6.376;2024-02-26T10:52:01;7.90;99.90
10149;DHT22;5115;50.920;6.376;2024-02-26T10:54:29;8.00;99.90
10149;DHT22;5115;50.920;6.376;2024-02-26T10:56:57;8.00;99.90
10149;DHT22;5115;50.920;6.376;2024-02-26T10:59:24;7.90;99.90
10149;DHT22;5115;50.920;6.376;2024-02-26T11:01:50;7.90;99.90
10149;DHT22;5115;50.920;6.376;2024-02-26T11:04:17;7.90;99.90
10149;DHT22;5115;50.920;6.376;2024-02-26T11:06:46;7.90;99.90
10149;DHT22;5115;50.920;6.376;2024-02-26T11:09:13;8.00;99.90
10149;DHT22;5115;50.920;6.376;2024-02-26T11:11:40;8.00;99.90
10149;DHT22;5115;50.920;6.376;2024-02-26T11:14:08;7.90;99.90
10149;DHT22;5115;50.920;6.376;2024-02-26T11:16:35;7.90;99.90
10149;DHT22;5115;50.920;6.376;2024-02-26T11:19:02;7.90;99.90
10149;DHT22;5115;50.920;6.376;2024-02-26T11:21:28;7.70;99.90
10149;DHT22;5115;50.920;6.376;2024-02-26T11:24:05;9.30;99.90
10149;DHT22;5115;50.920;6.376;2024-02-26T11:26:33;7.80;99.90
10149;DHT22;5115;50.920;6.376;2024-02-26T11:28:59;7.80;99.90
10149;DHT22;5115;50.920;6.376;2024-02-26T11:31:26;7.90;99.90
10149;DHT22;5115;50.920;6.376;2024-02-26T11:33:53;8.00;99.90
10149;DHT22;5115;50.920;6.376;2024-02-26T11:36:19;8.00;99.90
10149;DHT22;5115;50.920;6.376;2024-02-26T11:38:46;8.20;99.90
10149;DHT22;5115;50.920;6.376;2024-02-26T11:41:15;9.40;99.90
10149;DHT22;5115;50.920;6.376;2024-02-26T11:51:54;8.00;99.90
10149;DHT22;5115;50.920;6.376;2024-02-26T11:54:48;8.70;99.90
10149;DHT22;5115;50.920;6.376;2024-02-26T11:57:29;8.00;99.90
10149;DHT22;5115;50.920;6.376;2024-02-26T11:59:57;8.00;99.90
10149;DHT22;5115;50.920;6.376;2024-02-26T12:05:22;8.00;99.90
10149;DHT22;5115;50.920;6.376;2024-02-26T12:08:00;8.00;99.90
10149;DHT22;5115;50.920;6.376;2024-02-26T12:10:31;7.90;99.90
10149;DHT22;5115;50.920;6.376;2024-02-26T12:13:10;7.90;99.90
10149;DHT22;5115;50.920;6.376;2024-02-26T12:15:40;7.80;99.90
10149;DHT22;5115;50.920;6.376;2024-02-26T12:18:07;7.80;99.90
10149;DHT22;5115;50.920;6.376;2024-02-26T12:20:33;7.80;99.90
10149;DHT22;5115;50.920;6.376;2024-02-26T12:22:59;7.80;99.90
10149;DHT22;5115;50.920;6.376;2024-02-26T12:25:27;7.80;99.90
10149;DHT22;5115;50.920;6.376;2024-02-26T12:27:54;7.80;99.90
10149;DHT22;5115;50.920;6.376;2024-02-26T12:30:20;7.90;99.90
10149;DHT22;5115;50.920;6.376;2024-02-26T12:32:47;8.00;99.90
10149;DHT22;5115;50.920;6.376;2024-02-26T12:35:13;8.00;99.90
10149;DHT22;5115;50.920;6.376;2024-02-26T12:37:40;8.10;99.90
10149;DHT22;5115;50.920;6.376;2024-02-26T12:40:07;8.10;99.90
10149;DHT22;5115;50.920;6.376;2024-02-26T12:42:34;8.00;99.90
10149;DHT22;5115;50.920;6.376;2024-02-26T12:45:05;7.90;99.90
10149;DHT22;5115;50.920;6.376;2024-02-26T12:47:41;7.90;99.90
10149;DHT22;5115;50.920;6.376;2024-02-26T12:50:08;7.80;99.90
10149;DHT22;5115;50.920;6.376;2024-02-26T12:52:36;7.80;99.90
10149;DHT22;5115;50.920;6.376;2024-02-26T12:55:03;8.60;99.90
10149;DHT22;5115;50.920;6.376;2024-02-26T12:57:32;7.90;99.90
10149;DHT22;5115;50.920;6.376;2024-02-26T13:00:02;7.90;99.90
10149;DHT22;5115;50.920;6.376;2024-02-26T13:02:29;7.80;99.90
10149;DHT22;5115;50.920;6.376;2024-02-26T13:04:55;7.80;99.90
10149;DHT22;5115;50.920;6.376;2024-02-26T13:07:22;7.70;99.90
10149;DHT22;5115;50.920;6.376;2024-02-26T13:09:48;7.70;99.90
10149;DHT22;5115;50.920;6.376;2024-02-26T13:12:14;7.80;99.90
10149;DHT22;5115;50.920;6.376;2024-02-26T13:14:40;7.90;99.90
10149;DHT22;5115;50.920;6.376;2024-02-26T13:17:05;7.90;99.90
10149;DHT22;5115;50.920;6.376;2024-02-26T13:19:31;8.00;99.90
10149;DHT22;5115;50.920;6.376;2024-02-26T13:22:06;7.90;99.90
10149;DHT22;5115;50.920;6.376;2024-02-26T13:24:33;7.90;99.90
10149;DHT22;5115;50.920;6.376;2024-02-26T13:26:59;8.00;99.90
10149;DHT22;5115;50.920;6.376;2024-02-26T13:29:24;8.00;99.90
10149;DHT22;5115;50.920;6.376;2024-02-26T13:31:57;8.00;99.90
10149;DHT22;5115;50.920;6.376;2024-02-26T13:34:27;8.00;99.90
10149;DHT22;5115;50.920;6.376;2024-02-26T13:36:54;8.00;99.90
10149;DHT22;5115;50.920;6.376;2024-02-26T13:39:27;7.90;99.90
10149;DHT22;5115;50.920;6.376;2024-02-26T13:41:53;7.90;99.90
10149;DHT22;5115;50.920;6.376;2024-02-26T13:44:20;7.80;99.90
10149;DHT22;5115;50.920;6.376;2024-02-26T13:46:46;7.70;99.90
10149;DHT22;5115;50.920;6.376;2024-02-26T13:49:12;7.70;99.90
10149;DHT22;5115;50.920;6.376;2024-02-26T13:51:39;7.70;99.90
10149;DHT22;5115;50.920;6.376;2024-02-26T13:54:04;7.70;99.90
10149;DHT22;5115;50.920;6.376;2024-02-26T13:56:31;7.60;99.90
10149;DHT22;5115;50.920;6.376;2024-02-26T13:58:57;7.60;99.90
10149;DHT22;5115;50.920;6.376;2024-02-26T14:01:23;7.60;99.90
10149;DHT22;5115;50.920;6.376;2024-02-26T14:03:49;7.70;99.90
10149;DHT22;5115;50.920;6.376;2024-02-26T14:06:15;7.70;99.90
10149;DHT22;5115;50.920;6.376;2024-02-26T14:08:40;7.80;99.90
10149;DHT22;5115;50.920;6.376;2024-02-26T14:11:06;7.70;99.90
10149;DHT22;5115;50.920;6.376;2024-02-26T14:13:31;7.70;99.90
10149;DHT22;5115;50.920;6.376;2024-02-26T14:15:57;7.80;99.90
10149;DHT22;5115;50.920;6.376;2024-02-26T14:18:22;7.80;99.90
10149;DHT22;5115;50.920;6.376;2024-02-26T14:20:48;7.90;99.90
10149;DHT22;5115;50.920;6.376;2024-02-26T14:23:14;7.90;99.90
10149;DHT22;5115;50.920;6.376;2024-02-26T14:25:39;7.90;99.90
10149;DHT22;5115;50.920;6.376;2024-02-26T14:28:05;7.90;99.90
10149;DHT22;5115;50.920;6.376;2024-02-26T14:30:31;7.80;99.90
10149;DHT22;5115;50.920;6.376;2024-02-26T14:32:56;7.80;99.90
10149;DHT22;5115;50.920;6.376;2024-02-26T14:35:22;7.80;99.90
10149;DHT22;5115;50.920;6.376;2024-02-26T14:37:47;7.80;99.90
10149;DHT22;5115;50.920;6.376;2024-02-26T14:40:14;7.90;99.90
10149;DHT22;5115;50.920;6.376;2024-02-26T14:42:40;7.90;99.90
10149;DHT22;5115;50.920;6.376;2024-02-26T14:45:06;7.90;99.90
10149;DHT22;5115;50.920;6.376;2024-02-26T14:47:35;7.80;99.90
10149;DHT22;5115;50.920;6.376;2024-02-26T14:50:00;8.00;99.90
10149;DHT22;5115;50.920;6.376;2024-02-26T14:52:26;8.00;99.90
10149;DHT22;5115;50.920;6.376;2024-02-26T14:54:52;7.90;99.90
10149;DHT22;5115;50.920;6.376;2024-02-26T14:57:18;7.80;99.90
10149;DHT22;5115;50.920;6.376;2024-02-26T14:59:43;9.20;99.90
10149;DHT22;5115;50.920;6.376;2024-02-26T15:02:09;8.00;99.90
10149;DHT22;5115;50.920;6.376;2024-02-26T15:04:36;8.40;99.90
10149;DHT22;5115;50.920;6.376;2024-02-26T15:07:02;8.00;99.90
10149;DHT22;5115;50.920;6.376;2024-02-26T15:09:28;8.20;99.90
10149;DHT22;5115;50.920;6.376;2024-02-26T15:11:53;8.20;99.90
10149;DHT22;5115;50.920;6.376;2024-02-26T15:14:19;8.20;99.90
10149;DHT22;5115;50.920;6.376;2024-02-26T15:16:44;8.10;99.90
10149;DHT22;5115;50.920;6.376;2024-02-26T15:19:10;8.00;99.90
10149;DHT22;5115;50.920;6.376;2024-02-26T15:21:43;7.90;99.90
10149;DHT22;5115;50.920;6.376;2024-02-26T15:24:09;7.90;99.90
10149;DHT22;5115;50.920;6.376;2024-02-26T15:26:36;7.90;99.90
10149;DHT22;5115;50.920;6.376;2024-02-26T15:29:02;7.70;99.90
10149;DHT22;5115;50.920;6.376;2024-02-26T15:31:27;7.80;99.90
10149;DHT22;5115;50.920;6.376;2024-02-26T15:33:53;7.70;99.90
10149;DHT22;5115;50.920;6.376;2024-02-26T15:36:18;7.70;99.90
10149;DHT22;5115;50.920;6.376;2024-02-26T15:38:44;7.70;99.90
10149;DHT22;5115;50.920;6.376;2024-02-26T15:41:13;7.80;99.90
10149;DHT22;5115;50.920;6.376;2024-02-26T15:43:39;7.80;99.90
10149;DHT22;5115;50.920;6.376;2024-02-26T15:46:05;7.80;99.90
10149;DHT22;5115;50.920;6.376;2024-02-26T15:48:33;8.40;99.90
10149;DHT22;5115;50.920;6.376;2024-02-26T15:51:01;7.80;99.90
10149;DHT22;5115;50.920;6.376;2024-02-26T15:53:26;7.70;99.90
10149;DHT22;5115;50.920;6.376;2024-02-26T15:55:52;7.70;99.90
10149;DHT22;5115;50.920;6.376;2024-02-26T15:58:17;7.70;99.90
10149;DHT22;5115;50.920;6.376;2024-02-26T16:00:43;7.70;99.90
10149;DHT22;5115;50.920;6.376;2024-02-26T16:03:09;8.00;99.90
10149;DHT22;5115;50.920;6.376;2024-02-26T16:05:35;7.90;99.90
10149;DHT22;5115;50.920;6.376;2024-02-26T16:08:06;7.90;99.90